Time;durP1;ratioP1;P1;durP2;ratioP2;P2;SDS_P1;SDS_P2;PMS_P1;PMS_P2;Temp;Humidity;BMP_temperature;BMP_pressure;BME280_temperature;BME280_humidity;BME280_pressure;Samples;Min_cycle;Max_cycle;Signal;HPM_P1;HPM_P2
2023/06/01 00:00:10;;;;;;;22.70;5.68;;;;;;;14.19;69.61;99353.28;5040377;28;20052;-61
2023/06/01 00:02:41;;;;;;;32.45;5.65;;;;;;;14.31;67.52;99351.84;5055996;28;20133;-62
2023/06/01 00:05:11;;;;;;;20.60;4.63;;;;;;;14.41;66.49;99352.28;5070589;28;20454;-62
2023/06/01 00:07:43;;;;;;;19.80;4.40;;;;;;;14.50;65.93;99346.56;5059431;28;20056;-61
2023/06/01 00:10:28;;;;;;;24.48;4.18;;;;;;;14.55;66.11;99344.66;5070665;28;20482;-61
2023/06/01 00:13:10;;;;;;;25.08;5.35;;;;;;;14.57;66.50;99334.03;5059027;28;20058;-62
2023/06/01 00:15:52;;;;;;;16.23;3.72;;;;;;;14.72;66.08;99345.59;5058632;28;20054;-64
2023/06/01 00:18:30;;;;;;;20.45;4.60;;;;;;;14.74;66.21;99351.66;5070471;28;20079;-63
2023/06/01 00:21:05;;;;;;;22.77;4.07;;;;;;;14.74;65.57;99359.53;5059555;28;20059;-62
2023/06/01 00:23:36;;;;;;;23.50;4.68;;;;;;;14.66;65.50;99352.88;5059825;28;20051;-64
2023/06/01 00:26:08;;;;;;;20.40;5.57;;;;;;;14.57;65.37;99363.81;5070278;28;20056;-64
2023/06/01 00:28:39;;;;;;;16.55;3.58;;;;;;;14.52;66.03;99350.00;5059454;28;20142;-64
2023/06/01 00:31:09;;;;;;;20.95;4.93;;;;;;;14.60;66.54;99347.91;5070188;28;20051;-61
2023/06/01 00:33:41;;;;;;;16.73;3.80;;;;;;;14.72;66.78;99343.81;5059763;28;20410;-64
2023/06/01 00:36:15;;;;;;;18.33;3.63;;;;;;;14.93;66.36;99344.56;5049219;28;20063;-61
2023/06/01 00:38:45;;;;;;;15.18;3.60;;;;;;;15.09;65.53;99345.50;5040555;28;20048;-61
2023/06/01 00:41:17;;;;;;;17.85;3.72;;;;;;;15.14;64.81;99352.34;5053532;28;20044;-63
2023/06/01 00:43:48;;;;;;;26.42;3.95;;;;;;;15.23;65.90;99351.88;5049512;28;20469;-64
2023/06/01 00:46:18;;;;;;;20.45;3.35;;;;;;;15.28;65.46;99350.72;5069961;28;20062;-62
2023/06/01 00:48:50;;;;;;;16.48;3.33;;;;;;;15.09;64.72;99313.94;5058936;28;20054;-62
2023/06/01 00:51:21;;;;;;;18.95;4.22;;;;;;;15.41;64.44;99340.41;5070364;28;20051;-62
2023/06/01 00:53:52;;;;;;;13.63;3.43;;;;;;;15.77;64.60;99342.09;5055957;28;20036;-64
2023/06/01 00:56:24;;;;;;;6.38;2.55;;;;;;;16.56;63.11;99338.72;5051001;28;20278;-64
2023/06/01 00:58:55;;;;;;;11.33;2.97;;;;;;;17.01;61.59;99342.38;5046651;28;20051;-64
2023/06/01 01:01:26;;;;;;;18.50;2.93;;;;;;;17.38;60.45;99334.94;5054537;28;20283;-64
2023/06/01 01:04:00;;;;;;;15.17;3.40;;;;;;;17.85;59.38;99329.47;5039096;28;20737;-65
2023/06/01 01:06:48;;;;;;;17.47;3.37;;;;;;;18.11;58.78;99335.78;5042922;28;20335;-61
2023/06/01 01:09:29;;;;;;;17.93;3.20;;;;;;;17.90;57.32;99316.00;5059562;28;20693;-62
2023/06/01 01:12:05;;;;;;;15.63;3.23;;;;;;;17.93;56.69;99323.72;5039188;28;21434;-63
2023/06/01 01:14:41;;;;;;;19.37;3.50;;;;;;;17.88;57.57;99324.00;5039703;28;20286;-62
2023/06/01 01:17:17;;;;;;;13.27;3.23;;;;;;;17.91;57.63;99315.03;5049328;28;20695;-61
2023/06/01 01:19:59;;;;;;;11.03;3.07;;;;;;;18.03;58.31;99295.78;5039662;28;20287;-61
2023/06/01 01:23:05;;;;;;;14.83;3.30;;;;;;;18.67;58.25;99305.81;5042691;28;20340;-62
2023/06/01 01:26:10;;;;;;;17.07;2.87;;;;;;;18.51;55.82;99296.22;5046634;28;20723;-65
2023/06/01 01:28:48;;;;;;;9.90;2.90;;;;;;;18.28;56.17;99286.28;5048257;28;20570;-65
2023/06/01 01:31:20;;;;;;;11.60;2.23;;;;;;;18.10;55.98;99241.56;5057432;28;20381;-61
2023/06/01 01:33:55;;;;;;;11.13;2.60;;;;;;;18.34;55.98;99277.94;5039654;28;20358;-64
2023/06/01 01:36:26;;;;;;;6.60;2.10;;;;;;;18.28;55.75;99265.97;5049825;28;20284;-63
2023/06/01 01:38:56;;;;;;;7.50;2.10;;;;;;;18.36;55.76;99276.06;5039571;28;20290;-63
2023/06/01 01:41:27;;;;;;;9.70;2.73;;;;;;;18.37;54.40;99269.84;5049521;28;21009;-61
2023/06/01 01:44:00;;;;;;;12.00;2.40;;;;;;;18.24;54.62;99275.03;5042804;28;20293;-62
2023/06/01 01:46:34;;;;;;;12.50;2.30;;;;;;;18.30;56.00;99276.47;5059145;28;20329;-64
2023/06/01 01:49:12;;;;;;;9.07;2.37;;;;;;;18.58;56.64;99274.69;5068792;28;20313;-63
2023/06/01 01:51:50;;;;;;;11.93;2.72;;;;;;;18.83;55.08;99274.81;5058280;28;20960;-61
2023/06/01 01:54:21;;;;;;;14.20;2.77;;;;;;;19.05;54.56;99276.03;5069006;28;20040;-61
2023/06/01 01:56:54;;;;;;;13.87;2.43;;;;;;;18.85;53.18;99272.91;5058175;28;20278;-63
2023/06/01 01:59:30;;;;;;;8.03;2.57;;;;;;;18.43;54.06;99221.84;5068572;28;20306;-60
2023/06/01 02:02:02;;;;;;;11.57;3.07;;;;;;;18.54;53.86;99255.50;5058353;28;20281;-62
2023/06/01 02:04:33;;;;;;;8.83;2.70;;;;;;;18.63;54.11;99249.63;5058835;28;20286;-63
2023/06/01 02:07:03;;;;;;;11.50;2.40;;;;;;;19.00;54.14;99227.84;5068601;28;20279;-62
2023/06/01 02:09:34;;;;;;;6.47;1.87;;;;;;;19.26;52.07;99221.59;5058202;28;20290;-60
2023/06/01 02:12:05;;;;;;;6.17;2.40;;;;;;;19.44;51.43;99216.81;5069193;28;20288;-61
2023/06/01 02:14:37;;;;;;;11.17;2.63;;;;;;;19.62;49.44;99206.75;5057875;28;20285;-61
2023/06/01 02:17:08;;;;;;;8.97;2.20;;;;;;;19.75;50.63;99199.66;5067232;28;20273;-63
2023/06/01 02:19:39;;;;;;;6.70;1.80;;;;;;;19.95;49.74;99194.72;5058739;28;20289;-64
2023/06/01 02:22:09;;;;;;;7.03;2.07;;;;;;;20.03;48.23;99197.66;5068473;28;20379;-60
2023/06/01 02:24:40;;;;;;;21.23;3.07;;;;;;;20.09;48.09;99194.56;5061079;28;20967;-61
2023/06/01 02:27:11;;;;;;;12.27;2.50;;;;;;;19.96;47.15;99191.09;5072709;28;20278;-64
2023/06/01 02:29:43;;;;;;;10.60;2.53;;;;;;;19.96;47.48;99191.09;5059620;28;20321;-61
2023/06/01 02:32:13;;;;;;;13.37;3.60;;;;;;;20.06;48.26;99186.81;5070121;28;21211;-62
2023/06/01 02:34:44;;;;;;;13.73;2.83;;;;;;;20.10;49.03;99182.16;5060583;28;20286;-62
2023/06/01 02:37:15;;;;;;;13.83;3.53;;;;;;;20.36;49.16;99182.88;5069852;28;20966;-61
2023/06/01 02:39:47;;;;;;;12.00;2.83;;;;;;;20.48;48.91;99181.97;5057192;28;20350;-62
2023/06/01 02:42:17;;;;;;;15.23;3.03;;;;;;;20.23;47.45;99185.59;5067026;28;20293;-62
2023/06/01 02:44:49;;;;;;;6.83;2.20;;;;;;;19.99;47.83;99183.78;5057809;28;20749;-61
2023/06/01 02:47:20;;;;;;;15.63;3.03;;;;;;;19.77;48.27;99176.53;5067089;28;20286;-61
2023/06/01 02:49:51;;;;;;;29.03;4.03;;;;;;;19.67;49.28;99170.22;5058869;28;20270;-61
2023/06/01 02:52:21;;;;;;;12.27;2.77;;;;;;;19.64;49.50;99164.22;5072305;28;20306;-61
2023/06/01 02:54:52;;;;;;;14.60;3.03;;;;;;;19.48;49.06;99149.44;5061426;28;20288;-59
2023/06/01 02:57:23;;;;;;;9.40;2.27;;;;;;;19.26;49.74;99144.78;5072487;28;20289;-60
2023/06/01 02:59:55;;;;;;;6.60;2.10;;;;;;;18.98;50.56;99131.78;5060286;28;20377;-58
2023/06/01 03:02:26;;;;;;;10.60;2.30;;;;;;;19.03;51.85;99127.03;5071335;28;20302;-63
2023/06/01 03:04:56;;;;;;;12.77;3.20;;;;;;;19.51;51.78;99127.16;5060931;28;20866;-62
2023/06/01 03:07:27;;;;;;;13.97;2.50;;;;;;;19.72;51.23;99130.97;5072090;28;20281;-60
2023/06/01 03:09:58;;;;;;;18.03;2.80;;;;;;;19.97;51.72;99134.50;5059746;28;20274;-60
2023/06/01 03:12:28;;;;;;;11.80;2.40;;;;;;;20.00;51.22;99128.97;5068856;28;20759;-59
2023/06/01 03:15:00;;;;;;;9.73;2.57;;;;;;;20.21;52.09;99119.41;5070153;28;20290;-62
2023/06/01 03:17:31;;;;;;;16.20;2.53;;;;;;;20.56;50.33;99121.25;5059183;28;20310;-59
2023/06/01 03:20:02;;;;;;;14.00;2.43;;;;;;;20.82;47.95;99121.06;5065751;28;20756;-60
2023/06/01 03:22:33;;;;;;;7.07;2.07;;;;;;;20.88;47.34;99125.91;5047205;28;20383;-60
2023/06/01 03:25:06;;;;;;;15.00;2.33;;;;;;;21.10;48.85;99117.13;5057906;28;20290;-59
2023/06/01 03:27:37;;;;;;;15.83;2.70;;;;;;;21.15;48.59;99084.88;5069856;22;20397;-61
2023/06/01 03:30:11;;;;;;;7.63;2.80;;;;;;;21.42;47.21;99103.97;5037552;28;20385;-63
2023/06/01 03:32:42;;;;;;;11.63;2.70;;;;;;;21.41;47.43;99107.59;5028513;28;20295;-61
2023/06/01 03:35:13;;;;;;;12.73;2.63;;;;;;;21.42;48.30;99114.59;5039403;28;20291;-63
2023/06/01 03:37:45;;;;;;;10.57;2.63;;;;;;;21.81;48.67;99115.00;5030244;28;21414;-59
2023/06/01 03:40:16;;;;;;;10.17;2.80;;;;;;;22.11;48.79;99106.34;5041821;28;20601;-59
2023/06/01 03:42:47;;;;;;;10.87;2.57;;;;;;;22.20;48.03;99088.81;5029053;28;20409;-61
2023/06/01 03:45:19;;;;;;;12.20;2.70;;;;;;;22.05;47.30;99079.41;5037510;28;20391;-60
2023/06/01 03:47:50;;;;;;;16.60;4.00;;;;;;;21.76;48.62;99074.66;5028456;28;20352;-60
2023/06/01 03:50:21;;;;;;;13.00;3.20;;;;;;;21.64;49.00;99076.53;5039042;28;20356;-62
2023/06/01 03:52:51;;;;;;;11.60;3.30;;;;;;;21.77;49.88;99087.00;5028373;28;20291;-60
2023/06/01 03:55:22;;;;;;;9.70;2.60;;;;;;;21.97;48.86;99078.22;5065066;22;20741;-61
2023/06/01 03:57:53;;;;;;;9.67;2.80;;;;;;;22.15;48.54;99075.84;5020238;28;20652;-61
2023/06/01 04:00:26;;;;;;;12.70;3.03;;;;;;;22.23;48.41;99077.91;5033480;28;20283;-61
2023/06/01 04:02:57;;;;;;;11.60;3.17;;;;;;;22.22;47.57;99065.59;5014377;28;20362;-61
2023/06/01 04:05:28;;;;;;;8.63;2.80;;;;;;;22.32;48.75;99069.16;5027120;28;20287;-62
2023/06/01 04:07:59;;;;;;;10.77;2.93;;;;;;;22.39;48.91;99064.19;5018664;28;20271;-61
2023/06/01 04:10:29;;;;;;;13.53;3.07;;;;;;;22.19;47.93;99065.81;5023002;28;20368;-60
2023/06/01 04:13:00;;;;;;;13.03;4.17;;;;;;;22.15;48.99;99049.25;5016270;28;20348;-60
2023/06/01 04:15:32;;;;;;;15.67;3.43;;;;;;;22.13;49.87;99068.97;5026896;28;20811;-62
2023/06/01 04:18:03;;;;;;;11.43;3.23;;;;;;;22.07;48.85;99057.03;5039132;28;20289;-61
2023/06/01 04:20:34;;;;;;;12.47;3.27;;;;;;;22.20;49.72;99051.56;5027725;28;21070;-62
2023/06/01 04:23:05;;;;;;;18.07;3.53;;;;;;;22.09;49.61;99040.94;5038980;28;20752;-61
2023/06/01 04:25:39;;;;;;;18.23;4.43;;;;;;;22.21;50.43;99052.41;5026972;28;20315;-63
2023/06/01 04:28:10;;;;;;;14.10;3.10;;;;;;;22.11;49.43;99042.47;5032855;28;20419;-62
2023/06/01 04:30:44;;;;;;;12.63;3.10;;;;;;;21.93;50.04;99039.56;5022531;28;20283;-60
2023/06/01 04:33:15;;;;;;;11.23;2.70;;;;;;;21.64;50.37;99039.31;5029863;28;21412;-62
2023/06/01 04:35:46;;;;;;;12.27;3.07;;;;;;;21.32;51.26;99039.22;5021297;28;20643;-63
2023/06/01 04:38:18;;;;;;;20.50;3.60;;;;;;;21.18;52.09;99044.78;5025192;28;20287;-62
2023/06/01 04:40:49;;;;;;;11.40;3.40;;;;;;;20.91;51.75;99030.06;5017609;28;20310;-64
2023/06/01 04:43:19;;;;;;;15.43;3.63;;;;;;;20.58;53.08;99045.00;5016953;28;20295;-63
2023/06/01 04:45:55;;;;;;;12.33;3.73;;;;;;;20.44;53.79;99035.44;5004821;28;20386;-61
2023/06/01 04:48:30;;;;;;;19.77;3.77;;;;;;;20.46;54.07;99037.97;5029580;28;20291;-60
2023/06/01 04:51:01;;;;;;;16.43;4.07;;;;;;;20.38;53.84;99032.41;5028593;28;20295;-60
2023/06/01 04:53:32;;;;;;;13.83;3.80;;;;;;;20.29;54.21;99033.94;5029012;28;20291;-61
2023/06/01 04:56:02;;;;;;;16.57;4.30;;;;;;;20.06;54.21;99025.06;5039408;28;20776;-63
2023/06/01 04:58:36;;;;;;;12.63;3.57;;;;;;;19.82;55.28;99025.97;5029790;28;20285;-62
2023/06/01 05:01:08;;;;;;;17.13;4.30;;;;;;;19.70;55.30;99016.28;5039643;28;20286;-61
2023/06/01 05:03:39;;;;;;;19.10;4.00;;;;;;;19.59;55.54;99013.53;5029320;28;20778;-61
2023/06/01 05:06:10;;;;;;;17.57;3.67;;;;;;;19.45;55.93;99005.75;5039922;28;20279;-60
2023/06/01 05:08:41;;;;;;;14.60;3.47;;;;;;;19.29;56.11;98998.06;5029445;28;20332;-62
2023/06/01 05:11:11;;;;;;;14.27;4.40;;;;;;;19.24;56.71;99008.97;5039193;28;20293;-61
2023/06/01 05:13:44;;;;;;;18.37;3.97;;;;;;;19.13;56.47;99017.72;5029597;28;20282;-62
2023/06/01 05:16:16;;;;;;;36.77;4.97;;;;;;;18.98;56.37;99017.97;5040111;28;20323;-60
2023/06/01 05:18:47;;;;;;;26.37;4.20;;;;;;;18.69;56.45;99021.66;5030023;28;20799;-60
2023/06/01 05:21:17;;;;;;;29.87;5.27;;;;;;;18.53;56.32;99028.97;5039196;28;20299;-61
2023/06/01 05:23:48;;;;;;;16.60;3.73;;;;;;;18.30;56.74;99041.13;5029252;28;20284;-61
2023/06/01 05:26:19;;;;;;;36.23;4.50;;;;;;;18.01;57.40;99043.91;5039305;28;20310;-60
2023/06/01 05:28:49;;;;;;;19.50;3.80;;;;;;;17.81;58.14;99037.31;5029261;28;20292;-61
2023/06/01 05:31:22;;;;;;;17.13;3.80;;;;;;;17.63;58.06;99044.59;5039890;28;20314;-61
2023/06/01 05:33:52;;;;;;;20.80;5.00;;;;;;;17.51;58.72;99029.56;5029703;28;20317;-63
2023/06/01 05:36:23;;;;;;;31.07;12.70;;;;;;;17.55;58.89;99038.97;5039502;28;20385;-62
2023/06/01 05:38:54;;;;;;;39.67;12.03;;;;;;;17.53;58.60;99038.22;5029218;28;20274;-60
2023/06/01 05:41:25;;;;;;;93.00;36.73;;;;;;;17.47;58.96;99043.88;5039743;28;20282;-61
2023/06/01 05:43:56;;;;;;;46.80;14.00;;;;;;;17.42;59.24;99051.25;5013169;28;20598;-60
2023/06/01 05:46:28;;;;;;;39.77;13.50;;;;;;;17.00;59.47;99008.19;5023268;28;20279;-61
2023/06/01 05:48:59;;;;;;;24.90;11.10;;;;;;;17.14;60.31;99063.56;5028046;28;20291;-60
2023/06/01 05:51:29;;;;;;;23.80;6.97;;;;;;;17.01;60.30;99062.66;5030763;28;20400;-61
2023/06/01 05:54:00;;;;;;;58.03;19.90;;;;;;;16.84;60.53;99060.19;5038817;28;20817;-60
2023/06/01 05:56:30;;;;;;;27.13;5.80;;;;;;;16.72;60.95;99065.22;5028762;28;20785;-61
2023/06/01 05:59:01;;;;;;;22.40;5.00;;;;;;;16.26;61.13;99028.47;5042110;28;20286;-60
2023/06/01 06:01:34;;;;;;;22.83;5.27;;;;;;;16.34;60.73;99084.19;5033104;28;20277;-61
2023/06/01 06:04:04;;;;;;;10.47;3.03;;;;;;;15.90;59.93;99106.09;5042937;28;20375;-61
2023/06/01 06:06:35;;;;;;;11.93;2.73;;;;;;;15.20;60.57;99078.34;5032257;28;20341;-60
2023/06/01 06:09:06;;;;;;;7.87;2.70;;;;;;;15.07;61.62;99105.31;5042107;28;20275;-62
2023/06/01 06:11:38;;;;;;;13.63;2.87;;;;;;;14.87;62.02;99097.63;5032345;28;20286;-62
2023/06/01 06:14:13;;;;;;;12.07;3.13;;;;;;;14.66;63.40;99104.88;5042237;28;20293;-61
2023/06/01 06:16:45;;;;;;;13.13;3.40;;;;;;;14.72;64.88;99119.47;5032465;28;20290;-62
2023/06/01 06:19:16;;;;;;;10.30;3.23;;;;;;;14.73;65.34;99115.94;5042851;28;20283;-61
2023/06/01 06:21:50;;;;;;;14.27;4.40;;;;;;;14.55;66.11;99123.84;5031946;28;20279;-61
2023/06/01 06:24:20;;;;;;;9.77;3.17;;;;;;;14.40;66.74;99120.16;5042373;28;20323;-61
2023/06/01 06:26:51;;;;;;;10.73;3.40;;;;;;;14.41;67.56;99115.75;5031794;28;20601;-60
2023/06/01 06:29:21;;;;;;;9.07;2.80;;;;;;;14.34;68.16;99124.88;5041856;28;20318;-60
2023/06/01 06:31:54;;;;;;;9.60;3.27;;;;;;;14.00;69.34;99132.66;5031578;28;20056;-60
2023/06/01 06:34:24;;;;;;;11.17;2.93;;;;;;;13.89;71.96;99123.56;5042645;28;20375;-60
2023/06/01 06:36:55;;;;;;;8.32;3.05;;;;;;;13.60;71.90;99117.91;5022331;28;20290;-59
2023/06/01 06:39:26;;;;;;;10.63;3.53;;;;;;;13.41;74.71;99132.84;5028245;28;20053;-60
2023/06/01 06:41:56;;;;;;;13.70;3.70;;;;;;;13.45;77.68;99123.88;5011772;28;20147;-62
2023/06/01 06:44:27;;;;;;;6.85;3.08;;;;;;;13.46;77.91;99115.97;5025937;28;20064;-61
2023/06/01 06:47:01;;;;;;;8.40;2.80;;;;;;;13.29;76.81;99116.72;5021366;28;20435;-62
2023/06/01 06:49:31;;;;;;;7.43;3.15;;;;;;;13.07;77.57;99123.84;5023061;28;20626;-60
2023/06/01 06:52:02;;;;;;;11.35;4.25;;;;;;;12.93;79.19;99121.84;5032658;28;20065;-60
2023/06/01 06:54:32;;;;;;;13.45;3.60;;;;;;;12.77;79.96;99111.16;5031452;28;20321;-61
2023/06/01 06:57:03;;;;;;;9.57;3.00;;;;;;;12.67;81.20;99115.09;5051449;28;20066;-61
2023/06/01 06:59:34;;;;;;;11.02;4.20;;;;;;;12.78;83.31;99115.50;5041482;28;20045;-61
2023/06/01 07:02:08;;;;;;;10.43;3.28;;;;;;;12.88;85.13;99124.66;5051243;28;20048;-61
2023/06/01 07:04:38;;;;;;;9.38;3.58;;;;;;;13.01;86.67;99113.63;5041044;28;20526;-61
2023/06/01 07:07:09;;;;;;;12.55;3.55;;;;;;;12.99;87.16;99099.75;5051228;28;20759;-61
2023/06/01 07:09:40;;;;;;;12.88;4.10;;;;;;;13.01;87.54;99097.91;5041603;28;20063;-60
2023/06/01 07:12:11;;;;;;;12.88;3.30;;;;;;;12.93;88.53;99080.75;5051498;28;20048;-61
2023/06/01 07:14:42;;;;;;;12.57;3.63;;;;;;;13.01;89.88;99082.16;5041061;28;20052;-60
2023/06/01 07:17:14;;;;;;;9.15;4.18;;;;;;;13.13;91.14;99081.63;5051469;28;20137;-60
2023/06/01 07:19:45;;;;;;;14.15;3.97;;;;;;;13.16;90.58;99073.59;5042003;28;20134;-60
2023/06/01 07:22:16;;;;;;;12.48;3.88;;;;;;;13.22;91.59;99075.09;5051989;28;20208;-60
2023/06/01 07:24:47;;;;;;;10.73;3.72;;;;;;;13.19;91.44;99062.97;5040141;28;20210;-59
2023/06/01 07:27:20;;;;;;;11.88;3.75;;;;;;;13.19;92.32;99039.34;5051901;28;20063;-60
2023/06/01 07:29:54;;;;;;;12.13;4.00;;;;;;;13.26;92.79;99035.53;5040518;28;20060;-59
2023/06/01 07:32:27;;;;;;;13.07;6.05;;;;;;;13.02;93.16;98994.69;5051484;28;20143;-59
2023/06/01 07:34:59;;;;;;;21.60;7.75;;;;;;;13.35;93.55;99037.75;5040695;28;20048;-59
2023/06/01 07:37:29;;;;;;;17.40;6.68;;;;;;;13.35;93.48;99035.13;5044507;28;20492;-60
2023/06/01 07:40:00;;;;;;;18.17;6.35;;;;;;;13.31;93.67;99037.97;5051131;28;20055;-60
2023/06/01 07:42:30;;;;;;;15.55;6.95;;;;;;;12.97;93.39;98996.69;5040133;28;20740;-60
2023/06/01 07:45:02;;;;;;;16.25;6.55;;;;;;;13.11;94.05;99031.00;5050736;28;20112;-61
2023/06/01 07:47:34;;;;;;;16.23;6.20;;;;;;;13.14;95.08;99020.34;5040628;28;20080;-60
2023/06/01 07:50:06;;;;;;;16.20;6.40;;;;;;;13.09;95.38;99017.09;5051407;28;20302;-60
2023/06/01 07:52:38;;;;;;;18.90;6.70;;;;;;;12.99;95.44;99015.81;5041820;28;20052;-59
2023/06/01 07:55:10;;;;;;;31.05;10.35;;;;;;;12.85;95.75;99014.66;5051270;28;20147;-60
2023/06/01 07:57:41;;;;;;;12.75;5.32;;;;;;;12.83;96.73;99013.91;5040776;28;20060;-60
2023/06/01 08:00:13;;;;;;;11.07;4.20;;;;;;;12.67;96.82;99007.66;5050874;28;20055;-60
2023/06/01 08:02:45;;;;;;;14.63;5.43;;;;;;;12.41;96.70;99006.22;5040156;28;20079;-61
2023/06/01 08:05:18;;;;;;;11.45;5.43;;;;;;;12.28;97.63;99009.34;5050420;28;20939;-60
2023/06/01 08:07:48;;;;;;;13.57;5.60;;;;;;;12.22;98.18;99017.47;5040228;28;20739;-60
2023/06/01 08:10:19;;;;;;;9.10;3.85;;;;;;;12.09;97.51;99009.28;5050921;28;20101;-59
2023/06/01 08:12:50;;;;;;;9.43;3.58;;;;;;;11.78;97.41;98982.66;5039884;28;21246;-59
2023/06/01 08:15:21;;;;;;;9.80;3.95;;;;;;;11.78;98.05;99014.06;5050881;28;20113;-60
2023/06/01 08:17:53;;;;;;;9.43;3.85;;;;;;;11.73;99.00;99013.41;5039645;28;20077;-61
2023/06/01 08:20:26;;;;;;;13.75;5.82;;;;;;;11.68;98.70;99010.13;5049652;28;20058;-62
2023/06/01 08:22:57;;;;;;;14.98;4.68;;;;;;;11.59;98.83;99012.19;5039640;28;20109;-59
2023/06/01 08:25:28;;;;;;;15.48;4.03;;;;;;;11.55;99.29;99013.22;5051094;28;20072;-61
2023/06/01 08:27:58;;;;;;;7.22;3.47;;;;;;;11.55;99.71;99002.75;5038827;28;20045;-59
2023/06/01 08:30:29;;;;;;;8.45;3.90;;;;;;;11.66;100.00;98999.72;5044352;28;20506;-59
2023/06/01 08:33:02;;;;;;;10.25;3.80;;;;;;;11.64;99.65;98991.94;5047381;28;20373;-60
2023/06/01 08:35:34;;;;;;;11.07;4.13;;;;;;;11.53;99.54;98991.53;5033211;28;20155;-62
2023/06/01 08:38:05;;;;;;;10.48;4.10;;;;;;;11.64;100.00;98991.94;5031458;28;20048;-62
2023/06/01 08:40:35;;;;;;;12.68;4.22;;;;;;;11.71;100.00;98996.94;5037069;28;20079;-61
2023/06/01 08:43:13;;;;;;;14.45;4.57;;;;;;;11.87;100.00;99000.63;5048664;28;20131;-61
2023/06/01 08:45:46;;;;;;;11.60;3.60;;;;;;;11.96;100.00;98995.03;5037269;28;20041;-61
2023/06/01 08:48:20;;;;;;;8.73;3.80;;;;;;;11.98;100.00;98985.34;5036668;28;20481;-61
2023/06/01 08:50:54;;;;;;;14.55;5.05;;;;;;;12.04;100.00;98984.22;5037566;28;20487;-62
2023/06/01 08:53:24;;;;;;;8.70;4.18;;;;;;;12.14;100.00;98985.53;5050415;28;20905;-60
2023/06/01 08:55:55;;;;;;;13.18;5.32;;;;;;;12.14;100.00;98980.28;5037551;28;20623;-60
2023/06/01 08:58:27;;;;;;;27.83;17.08;;;;;;;12.29;100.00;98984.00;5050793;28;20116;-60
2023/06/01 09:01:02;;;;;;;12.52;6.20;;;;;;;11.60;100.00;98854.31;5037178;28;20054;-59
2023/06/01 09:03:35;;;;;;;24.80;18.02;;;;;;;12.45;100.00;98990.25;5038533;28;20048;-61
2023/06/01 09:06:07;;;;;;;13.65;8.05;;;;;;;12.47;100.00;98993.66;5048634;28;20078;-60
2023/06/01 09:08:51;;;;;;;11.75;5.60;;;;;;;12.18;100.00;98950.44;5037225;28;20053;-60
2023/06/01 09:11:23;;;;;;;9.95;5.47;;;;;;;12.45;100.00;98995.50;5050347;28;20056;-59
2023/06/01 09:13:58;;;;;;;8.23;4.43;;;;;;;12.47;100.00;98993.66;5003359;28;20817;-61
2023/06/01 09:17:03;;;;;;;8.93;4.30;;;;;;;12.41;100.00;98973.00;5046152;28;20048;-61
2023/06/01 09:20:01;;;;;;;5.55;3.03;;;;;;;12.50;100.00;98983.06;5015900;28;20188;-61
2023/06/01 09:22:45;;;;;;;8.82;3.90;;;;;;;12.53;100.00;98987.31;5017094;28;20044;-60
2023/06/01 09:25:26;;;;;;;5.93;2.88;;;;;;;12.58;100.00;98994.94;5031703;28;20166;-57
2023/06/01 09:28:02;;;;;;;6.97;2.78;;;;;;;12.51;100.00;98976.91;5037477;28;20058;-59
2023/06/01 09:34:03;;;;;;;6.85;3.17;;;;;;;12.38;100.00;98981.00;5041951;28;20060;-61
2023/06/01 09:36:41;;;;;;;4.90;2.92;;;;;;;12.37;100.00;98987.13;5041092;28;20051;-62
2023/06/01 09:39:15;;;;;;;6.00;3.10;;;;;;;12.37;100.00;98997.59;5053171;28;20826;-60
2023/06/01 09:41:53;;;;;;;6.68;3.17;;;;;;;12.34;100.00;99002.16;5042794;28;20064;-59
2023/06/01 09:44:38;;;;;;;10.05;2.95;;;;;;;12.33;100.00;98998.69;5052191;28;20052;-59
2023/06/01 09:47:12;;;;;;;5.18;2.30;;;;;;;12.35;100.00;99001.22;5042926;28;20675;-59
2023/06/01 09:49:53;;;;;;;6.68;2.67;;;;;;;12.38;100.00;98996.72;5039732;28;20139;-61
2023/06/01 09:52:37;;;;;;;5.55;2.45;;;;;;;12.40;100.00;99028.91;5039584;28;20144;-61
2023/06/01 09:55:21;;;;;;;4.25;1.95;;;;;;;12.34;100.00;98997.75;5051149;28;20086;-61
2023/06/01 09:57:54;;;;;;;5.22;2.40;;;;;;;12.02;100.00;98945.00;5028445;28;20041;-61
2023/06/01 10:00:26;;;;;;;6.25;2.15;;;;;;;12.38;100.00;99004.56;5038368;28;20048;-60
2023/06/01 10:02:58;;;;;;;4.68;2.13;;;;;;;12.41;100.00;98988.72;5028804;28;20088;-61
2023/06/01 10:05:33;;;;;;;6.30;2.22;;;;;;;12.36;100.00;98989.84;5022791;28;20056;-62
2023/06/01 10:08:11;;;;;;;5.00;2.10;;;;;;;12.22;100.00;98977.34;5030632;28;20044;-62
2023/06/01 10:10:47;;;;;;;6.55;2.50;;;;;;;11.81;100.00;98919.75;5020441;28;20067;-59
2023/06/01 10:13:24;;;;;;;13.77;2.45;;;;;;;12.33;100.00;99005.66;5033533;28;20114;-61
2023/06/01 10:16:11;;;;;;;4.03;1.52;;;;;;;11.86;100.00;98938.72;5039461;28;20089;-63
2023/06/01 10:18:45;;;;;;;2.70;1.50;;;;;;;12.28;100.00;99008.47;5038874;28;20389;-60
2023/06/01 10:21:18;;;;;;;4.20;1.52;;;;;;;12.20;100.00;99000.13;5046273;28;20819;-60
2023/06/01 10:23:53;;;;;;;5.72;1.80;;;;;;;12.22;100.00;99014.00;5037406;28;20129;-60
2023/06/01 10:26:32;;;;;;;2.83;1.50;;;;;;;12.25;100.00;99009.47;5051318;28;20802;-63
2023/06/01 10:29:22;;;;;;;2.70;1.70;;;;;;;11.95;100.00;98963.66;5041006;28;20143;-62
2023/06/01 10:32:25;;;;;;;3.05;1.83;;;;;;;12.15;100.00;99002.94;5030347;28;20052;-63
2023/06/01 10:35:10;;;;;;;4.43;1.70;;;;;;;12.21;100.00;99012.31;5029765;28;20101;-61
2023/06/01 10:37:43;;;;;;;6.93;2.67;;;;;;;12.08;100.00;99004.97;5027579;28;20164;-60
2023/06/01 10:43:56;;;;;;;3.60;1.80;;;;;;;12.11;100.00;99008.38;5029516;28;20485;-61
2023/06/01 10:46:48;;;;;;;2.70;1.60;;;;;;;11.84;100.00;98972.78;4994067;28;20059;-62
2023/06/01 10:49:57;;;;;;;2.92;1.40;;;;;;;12.04;100.00;99010.41;5051340;28;20044;-61
2023/06/01 10:52:30;;;;;;;6.95;2.50;;;;;;;11.96;100.00;99013.34;5042390;28;20044;-61
2023/06/01 10:55:47;;;;;;;5.95;2.75;;;;;;;12.03;100.00;99009.56;5048292;28;20058;-61
2023/06/01 10:58:25;;;;;;;5.95;2.13;;;;;;;12.07;100.00;99016.34;4897309;29;20059;-62
2023/06/01 11:01:37;;;;;;;6.10;2.28;;;;;;;11.83;100.00;98975.47;4875675;29;20079;-60
2023/06/01 11:04:52;;;;;;;;;;;;;;;12.08;100.00;99017.19;4911436;28;20048;-62
2023/06/01 11:07:45;;;;;;;7.30;2.47;;;;;;;12.05;100.00;99023.41;4898480;29;20012;-63
2023/06/01 11:11:02;;;;;;;10.82;5.15;;;;;;;12.05;100.00;99033.03;4904126;29;20431;-57
2023/06/01 11:13:39;;;;;;;4.80;1.85;;;;;;;11.96;100.00;99029.06;4899506;28;20060;-63
2023/06/01 11:16:54;;;;;;;11.43;2.15;;;;;;;12.00;100.00;99041.06;4899455;29;20056;-59
2023/06/01 11:19:31;;;;;;;8.73;2.28;;;;;;;11.96;100.00;99029.06;4917170;28;20065;-62
2023/06/01 11:22:16;;;;;;;4.20;1.80;;;;;;;11.87;100.00;99018.94;4907386;28;20062;-62
2023/06/01 11:24:55;;;;;;;4.82;2.05;;;;;;;11.96;100.00;99036.91;4908602;28;20039;-60
2023/06/01 11:27:35;;;;;;;6.82;3.00;;;;;;;11.87;100.00;99018.94;4916614;28;20055;-63
2023/06/01 11:30:14;;;;;;;4.25;2.47;;;;;;;12.06;100.00;99046.06;4907832;28;20156;-63
2023/06/01 11:32:52;;;;;;;6.30;2.50;;;;;;;12.11;100.00;99058.13;4908717;28;20051;-61
2023/06/01 11:35:29;;;;;;;7.20;2.25;;;;;;;12.05;99.91;99048.75;4979652;28;20234;-63
2023/06/01 11:38:01;;;;;;;6.95;2.70;;;;;;;11.77;99.81;99012.38;5023623;28;20485;-61
2023/06/01 11:40:33;;;;;;;6.38;2.55;;;;;;;12.01;100.00;99048.03;5030938;28;20056;-61
2023/06/01 11:43:13;;;;;;;7.25;2.72;;;;;;;12.09;99.88;99056.41;5058426;28;20374;-61
2023/06/01 11:46:07;;;;;;;7.05;2.75;;;;;;;12.07;99.29;99052.16;5046077;28;20051;-61
2023/06/01 11:49:01;;;;;;;;;;;;;;;12.03;99.20;99040.97;5046887;28;20526;-64
2023/06/01 11:51:47;;;;;;;11.27;3.25;;;;;;;12.01;99.71;99048.03;5047757;28;20334;-60
2023/06/01 11:54:28;;;;;;;5.68;2.90;;;;;;;12.01;99.97;99053.28;5057079;28;20063;-63
2023/06/01 11:57:00;;;;;;;7.32;3.10;;;;;;;12.03;99.60;99072.38;5045689;28;20063;-60
2023/06/01 11:59:53;;;;;;;7.20;2.83;;;;;;;11.98;99.56;99074.34;5047548;28;20101;-63
2023/06/01 12:02:45;;;;;;;8.10;3.22;;;;;;;11.87;99.51;99055.59;5047302;28;20055;-61
2023/06/01 12:05:26;;;;;;;6.20;2.38;;;;;;;12.00;98.99;99067.25;5059318;28;20482;-59
2023/06/01 12:08:01;;;;;;;6.90;2.53;;;;;;;12.06;99.03;99076.66;5027303;28;20129;-63